Time;durP1;ratioP1;P1;durP2;ratioP2;P2;SDS_P1;SDS_P2;PMS_P1;PMS_P2;Temp;Humidity;BMP_temperature;BMP_pressure;BME280_temperature;BME280_humidity;BME280_pressure;Samples;Min_cycle;Max_cycle;Signal;HPM_P1;HPM_P2
2022/08/05 00:00:34;;;;;;;;;;;;;;;23.61;56.77;100347.72;5009693;28;6921;-74
2022/08/05 00:03:00;;;;;;;;;;;;;;;23.60;56.46;100352.94;5014781;28;7016;-74
2022/08/05 00:05:26;;;;;;;;;;;;;;;23.57;56.40;100348.63;5013419;28;6950;-74
2022/08/05 00:07:51;;;;;;;;;;;;;;;23.53;57.09;100346.91;5014688;28;6768;-75
2022/08/05 00:10:17;;;;;;;;;;;;;;;23.50;56.90;100341.69;4975697;28;6832;-75
2022/08/05 00:12:43;;;;;;;;;;;;;;;23.44;57.42;100345.22;5009672;28;6932;-75
2022/08/05 00:15:10;;;;;;;;;;;;;;;23.39;57.40;100346.97;5008512;28;6963;-75
2022/08/05 00:17:35;;;;;;;;;;;;;;;23.33;57.37;100347.88;4981068;28;6988;-75
2022/08/05 00:20:01;;;;;;;;;;;;;;;23.29;57.54;100346.19;4980919;28;6940;-75
2022/08/05 00:22:27;;;;;;;;;;;;;;;23.26;57.05;100340.91;4979697;28;6938;-75
2022/08/05 00:24:52;;;;;;;;;;;;;;;23.23;57.60;100346.19;4977788;28;7155;-75
2022/08/05 00:27:18;;;;;;;;;;;;;;;23.17;57.66;100344.47;4980595;28;6772;-75
2022/08/05 00:29:44;;;;;;;;;;;;;;;23.13;57.74;100345.34;5008923;28;7173;-75
2022/08/05 00:32:11;;;;;;;;;;;;;;;23.06;58.10;100334.06;5005767;28;6927;-75
2022/08/05 00:34:38;;;;;;;;;;;;;;;23.02;58.38;100345.41;5001144;28;6979;-75
2022/08/05 00:37:05;;;;;;;;;;;;;;;22.97;58.23;100348.03;5012693;28;7143;-75
2022/08/05 00:39:31;;;;;;;;;;;;;;;22.92;58.30;100354.16;5011759;28;6926;-75
2022/08/05 00:41:56;;;;;;;;;;;;;;;22.87;58.37;100352.41;4987234;28;7034;-75
2022/08/05 00:44:23;;;;;;;;;;;;;;;22.84;58.71;100352.44;4996875;28;7993;-75
2022/08/05 00:46:48;;;;;;;;;;;;;;;22.83;58.72;100360.28;5007094;28;7336;-75
2022/08/05 00:49:17;;;;;;;;;;;;;;;22.80;59.20;100358.56;4978180;28;7193;-75
2022/08/05 00:51:44;;;;;;;;;;;;;;;22.78;58.97;100354.22;5010377;28;6993;-75
2022/08/05 00:54:13;;;;;;;;;;;;;;;22.77;59.30;100342.03;5008185;28;6780;-75
2022/08/05 00:56:39;;;;;;;;;;;;;;;22.75;59.60;100331.56;5010384;28;8071;-75
2022/08/05 00:59:06;;;;;;;;;;;;;;;22.74;59.67;100324.63;4975781;28;7224;-75
2022/08/05 01:01:31;;;;;;;;;;;;;;;22.71;59.85;100322.03;5009758;28;7097;-75
2022/08/05 01:03:57;;;;;;;;;;;;;;;22.69;59.99;100322.00;5008917;28;6910;-75
2022/08/05 01:06:23;;;;;;;;;;;;;;;22.66;60.19;100342.03;4984642;28;6768;-75
2022/08/05 01:08:48;;;;;;;;;;;;;;;22.66;60.29;100356.00;4985784;28;7169;-75
2022/08/05 01:11:23;;;;;;;;;;;;;;;22.68;60.61;100355.97;5014432;28;7193;-75
2022/08/05 01:14:05;;;;;;;;;;;;;;;22.71;60.74;100359.44;5012931;28;7208;-75
2022/08/05 01:16:48;;;;;;;;;;;;;;;22.76;60.79;100367.25;5014416;28;7202;-75
2022/08/05 01:19:26;;;;;;;;;;;;;;;22.80;60.55;100370.75;4981527;28;7110;-75
2022/08/05 01:22:13;;;;;;;;;;;;;;;22.84;60.34;100378.56;4980616;28;7190;-75
2022/08/05 01:25:01;;;;;;;;;;;;;;;22.90;60.56;100406.41;5029685;28;6995;-74
2022/08/05 01:28:23;;;;;;;;;;;;;;;22.96;60.68;100421.19;4988674;28;6997;-75
2022/08/05 01:31:40;;;;;;;;;;;;;;;22.98;60.62;100422.06;4982510;28;7291;-75
2022/08/05 01:34:13;;;;;;;;;;;;;;;23.03;60.31;100433.38;5009065;28;7072;-74
2022/08/05 01:36:46;;;;;;;;;;;;;;;23.06;60.62;100437.75;5013191;28;6972;-73
2022/08/05 01:39:16;;;;;;;;;;;;;;;23.05;60.17;100455.16;4998211;28;7067;-72
2022/08/05 01:41:46;;;;;;;;;;;;;;;23.01;60.14;100485.66;4984262;28;7407;-71
2022/08/05 01:44:14;;;;;;;;;;;;;;;22.93;60.48;100482.19;5013157;28;6930;-71
2022/08/05 01:46:43;;;;;;;;;;;;;;;22.85;60.54;100482.19;5013303;28;6868;-71
2022/08/05 01:49:15;;;;;;;;;;;;;;;22.79;60.81;100479.63;5014425;28;7010;-72
2022/08/05 01:51:42;;;;;;;;;;;;;;;22.72;60.23;100488.31;4978732;28;6980;-72
2022/08/05 01:54:11;;;;;;;;;;;;;;;22.68;60.80;100486.56;5031878;28;7254;-72
2022/08/05 01:56:42;;;;;;;;;;;;;;;22.66;60.99;100477.88;5013224;28;6933;-73
2022/08/05 01:59:16;;;;;;;;;;;;;;;22.66;61.24;100475.25;5031146;28;7161;-73
2022/08/05 02:01:50;;;;;;;;;;;;;;;22.63;61.58;100475.28;5009840;28;6804;-73
2022/08/05 02:04:19;;;;;;;;;;;;;;;22.60;61.19;100469.19;4985497;28;6962;-76
2022/08/05 02:06:45;;;;;;;;;;;;;;;22.57;61.52;100468.31;4976867;28;7442;-76
2022/08/05 02:09:11;;;;;;;;;;;;;;;22.54;61.74;100453.50;4982467;28;6984;-76
2022/08/05 02:11:49;;;;;;;;;;;;;;;22.50;62.03;100441.31;5012517;28;6919;-76
2022/08/05 02:14:26;;;;;;;;;;;;;;;22.46;61.66;100465.66;4985671;28;7158;-74
2022/08/05 02:16:57;;;;;;;;;;;;;;;22.44;62.08;100451.75;4983549;28;6812;-74
2022/08/05 02:19:26;;;;;;;;;;;;;;;22.43;61.53;100442.16;5000647;28;8068;-74
2022/08/05 02:22:11;;;;;;;;;;;;;;;22.42;62.32;100409.97;4982913;28;6792;-74
2022/08/05 02:24:43;;;;;;;;;;;;;;;22.42;61.97;100385.59;4980576;28;6841;-74
2022/08/05 02:27:11;;;;;;;;;;;;;;;22.41;62.30;100358.63;4980202;28;7235;-75
2022/08/05 02:29:41;;;;;;;;;;;;;;;22.40;62.23;100340.31;4977698;28;6956;-75
2022/08/05 02:32:10;;;;;;;;;;;;;;;22.37;61.72;100320.34;4981377;28;6811;-75
2022/08/05 02:34:36;;;;;;;;;;;;;;;22.34;61.96;100312.50;5001661;28;6811;-75
2022/08/05 02:37:07;;;;;;;;;;;;;;;22.31;62.07;100321.22;4980289;28;6796;-75
2022/08/05 02:39:37;;;;;;;;;;;;;;;22.28;62.49;100316.00;4997809;28;6998;-75
2022/08/05 02:42:06;;;;;;;;;;;;;;;22.29;62.29;100316.88;4983408;28;6978;-75
2022/08/05 02:44:37;;;;;;;;;;;;;;;22.30;62.54;100313.38;4984524;28;7521;-75
2022/08/05 02:47:07;;;;;;;;;;;;;;;22.30;62.35;100319.47;5004123;28;6984;-75
2022/08/05 02:49:40;;;;;;;;;;;;;;;22.32;62.30;100361.22;5029266;28;7250;-75
2022/08/05 02:52:16;;;;;;;;;;;;;;;22.35;62.05;100374.28;4989602;28;7210;-75
2022/08/05 02:54:44;;;;;;;;;;;;;;;22.39;62.46;100380.38;4991162;28;6992;-75
2022/08/05 02:57:15;;;;;;;;;;;;;;;22.43;62.55;100403.84;4983583;28;6931;-75
2022/08/05 02:59:45;;;;;;;;;;;;;;;22.45;62.30;100429.97;5013032;28;6976;-75
2022/08/05 03:02:16;;;;;;;;;;;;;;;22.48;62.11;100438.69;4973992;28;7314;-75
2022/08/05 03:04:43;;;;;;;;;;;;;;;22.51;62.46;100440.47;4980834;28;6925;-75
2022/08/05 03:07:09;;;;;;;;;;;;;;;22.55;62.14;100450.03;5004099;28;6868;-75
2022/08/05 03:09:37;;;;;;;;;;;;;;;22.58;62.34;100455.22;4976723;28;6812;-75
2022/08/05 03:12:04;;;;;;;;;;;;;;;22.63;62.66;100462.22;5013680;28;7171;-75
2022/08/05 03:14:29;;;;;;;;;;;;;;;22.68;62.31;100460.44;4983089;28;6800;-75
2022/08/05 03:16:55;;;;;;;;;;;;;;;22.70;62.63;100459.59;5014225;28;6840;-75
2022/08/05 03:19:20;;;;;;;;;;;;;;;22.74;62.62;100456.13;4980536;28;6795;-75
2022/08/05 03:21:46;;;;;;;;;;;;;;;22.77;62.38;100444.75;4989001;28;7062;-75
2022/08/05 03:24:13;;;;;;;;;;;;;;;22.79;62.23;100432.59;5016470;28;7216;-75
2022/08/05 03:26:38;;;;;;;;;;;;;;;22.82;62.78;100416.91;5007807;28;6984;-75
2022/08/05 03:29:04;;;;;;;;;;;;;;;22.87;62.50;100415.13;4987903;28;7335;-75
2022/08/05 03:31:31;;;;;;;;;;;;;;;22.89;62.23;100402.06;4978061;28;7175;-75
2022/08/05 03:33:57;;;;;;;;;;;;;;;22.94;61.95;100391.59;4997874;28;6978;-75
2022/08/05 03:36:24;;;;;;;;;;;;;;;22.97;62.29;100378.50;5002494;28;7121;-75
2022/08/05 03:38:49;;;;;;;;;;;;;;;22.98;61.90;100373.28;5011708;28;7008;-75
2022/08/05 03:41:15;;;;;;;;;;;;;;;22.98;61.91;100370.69;4999409;28;7029;-74
2022/08/05 03:43:41;;;;;;;;;;;;;;;22.98;62.13;100361.97;4982051;28;6872;-74
2022/08/05 03:46:07;;;;;;;;;;;;;;;22.95;61.59;100359.38;5007979;28;6863;-74
2022/08/05 03:48:33;;;;;;;;;;;;;;;22.92;62.02;100373.31;5014471;28;6851;-75
2022/08/05 03:51:54;;;;;;;;;;;;;;;22.92;62.18;100381.16;4986076;28;6979;-74
2022/08/05 03:54:38;;;;;;;;;;;;;;;22.93;62.29;100395.09;4982480;28;8054;-75
2022/08/05 03:57:12;;;;;;;;;;;;;;;22.94;62.02;100389.00;5005758;28;6887;-76
2022/08/05 04:00:00;;;;;;;;;;;;;;;22.95;62.07;100365.47;4989545;28;6982;-76
2022/08/05 04:02:31;;;;;;;;;;;;;;;22.95;62.38;100359.38;5005195;28;6820;-76
2022/08/05 04:04:58;;;;;;;;;;;;;;;22.94;62.12;100355.03;4981640;28;6820;-76
2022/08/05 04:07:26;;;;;;;;;;;;;;;22.92;62.06;100362.00;4994966;28;6982;-76
2022/08/05 04:09:53;;;;;;;;;;;;;;;22.91;61.93;100366.34;4972705;28;6784;-75
2022/08/05 04:12:20;;;;;;;;;;;;;;;22.89;61.95;100358.53;5011415;28;6926;-75
2022/08/05 04:14:46;;;;;;;;;;;;;;;22.87;62.01;100352.41;4969457;28;6979;-75
2022/08/05 04:17:12;;;;;;;;;;;;;;;22.86;61.93;100345.47;5004255;28;7344;-76
2022/08/05 04:19:47;;;;;;;;;;;;;;;22.86;62.51;100337.63;4972258;28;7365;-76
2022/08/05 04:22:13;;;;;;;;;;;;;;;22.85;62.46;100343.72;4982217;28;7230;-76
2022/08/05 04:24:42;;;;;;;;;;;;;;;22.87;62.52;100344.56;5010199;28;6812;-75
2022/08/05 04:27:08;;;;;;;;;;;;;;;22.89;62.24;100328.91;5012840;28;6820;-76
2022/08/05 04:29:34;;;;;;;;;;;;;;;22.89;62.28;100326.28;4979823;28;6852;-76
2022/08/05 04:32:00;;;;;;;;;;;;;;;22.88;62.45;100342.84;5010934;28;6943;-75
2022/08/05 04:34:25;;;;;;;;;;;;;;;22.87;62.48;100362.88;5011589;28;6875;-76
2022/08/05 04:36:51;;;;;;;;;;;;;;;22.89;62.35;100366.38;5012213;28;6991;-76
2022/08/05 04:39:18;;;;;;;;;;;;;;;22.90;62.60;100372.44;5013413;28;6972;-76
2022/08/05 04:41:45;;;;;;;;;;;;;;;22.93;62.71;100371.56;5011163;28;6780;-76
2022/08/05 04:44:11;;;;;;;;;;;;;;;22.96;63.02;100375.06;5028158;28;7133;-76
2022/08/05 04:46:37;;;;;;;;;;;;;;;23.00;62.51;100391.59;5009077;28;6768;-75
2022/08/05 04:49:03;;;;;;;;;;;;;;;23.01;62.53;100396.78;5013245;28;7895;-75
2022/08/05 04:51:29;;;;;;;;;;;;;;;23.02;62.88;100388.06;5009859;28;6954;-75
2022/08/05 04:53:54;;;;;;;;;;;;;;;23.03;62.84;100395.06;4988797;28;7229;-75
2022/08/05 04:56:20;;;;;;;;;;;;;;;23.06;62.88;100399.38;5011868;28;6780;-75
2022/08/05 04:58:45;;;;;;;;;;;;;;;23.07;62.88;100395.91;4978732;28;7248;-76
2022/08/05 05:01:11;;;;;;;;;;;;;;;23.10;62.47;100402.88;5010709;28;7197;-75
2022/08/05 05:03:37;;;;;;;;;;;;;;;23.10;62.69;100406.38;5007831;28;6966;-76
2022/08/05 05:06:02;;;;;;;;;;;;;;;23.14;62.98;100413.31;4992908;28;6962;-76
2022/08/05 05:08:28;;;;;;;;;;;;;;;23.17;62.54;100415.91;4981236;28;6847;-75
2022/08/05 05:10:54;;;;;;;;;;;;;;;23.22;62.52;100417.63;5013233;28;7270;-75
2022/08/05 05:13:20;;;;;;;;;;;;;;;23.22;62.20;100412.41;4977839;28;7348;-75
2022/08/05 05:15:46;;;;;;;;;;;;;;;23.23;62.73;100411.53;4983041;28;6840;-75
2022/08/05 05:18:15;;;;;;;;;;;;;;;23.24;62.63;100405.44;5006228;28;7464;-74
2022/08/05 05:20:45;;;;;;;;;;;;;;;23.24;62.58;100413.25;4999948;28;7297;-75
2022/08/05 05:23:12;;;;;;;;;;;;;;;23.21;62.83;100403.69;4976938;28;7291;-75
2022/08/05 05:25:40;;;;;;;;;;;;;;;23.21;62.04;100408.06;5013309;28;7025;-75
2022/08/05 05:28:07;;;;;;;;;;;;;;;23.18;62.68;100403.72;4973400;28;7230;-75
2022/08/05 05:30:33;;;;;;;;;;;;;;;23.17;62.33;100408.06;5014938;28;7239;-75
2022/08/05 05:33:02;;;;;;;;;;;;;;;23.17;62.21;100413.28;4980143;28;7164;-75
2022/08/05 05:35:29;;;;;;;;;;;;;;;23.18;62.33;100419.41;4984357;28;6915;-75
2022/08/05 05:38:01;;;;;;;;;;;;;;;23.20;62.54;100411.56;5013982;28;7043;-75
2022/08/05 05:40:29;;;;;;;;;;;;;;;23.20;62.92;100416.78;4994854;28;7004;-75
2022/08/05 05:42:55;;;;;;;;;;;;;;;23.20;62.39;100422.88;5000385;28;7009;-75
2022/08/05 05:45:21;;;;;;;;;;;;;;;23.17;62.57;100415.91;5014669;28;6796;-75
2022/08/05 05:47:47;;;;;;;;;;;;;;;23.19;62.38;100425.50;4980536;28;6997;-77
2022/08/05 05:50:16;;;;;;;;;;;;;;;23.21;62.53;100416.75;5012321;28;7188;-77
2022/08/05 05:52:43;;;;;;;;;;;;;;;23.23;62.30;100419.38;4987368;28;6926;-77
2022/08/05 05:55:11;;;;;;;;;;;;;;;23.24;62.75;100418.50;5016527;28;7121;-77
2022/08/05 05:57:39;;;;;;;;;;;;;;;23.22;62.51;100418.50;5016633;28;8022;-77
2022/08/05 06:00:10;;;;;;;;;;;;;;;23.18;62.47;100419.41;5018233;28;6792;-76
2022/08/05 06:02:36;;;;;;;;;;;;;;;23.16;62.25;100435.06;4983658;28;7350;-76
2022/08/05 06:05:01;;;;;;;;;;;;;;;23.15;62.89;100428.09;4996728;28;7057;-76
2022/08/05 06:07:27;;;;;;;;;;;;;;;23.18;62.45;100445.53;5000161;28;6971;-76
2022/08/05 06:09:53;;;;;;;;;;;;;;;23.20;62.79;100456.00;4985287;28;6834;-77
2022/08/05 06:12:18;;;;;;;;;;;;;;;23.24;62.60;100453.38;5018510;28;6910;-77
2022/08/05 06:14:44;;;;;;;;;;;;;;;23.28;62.76;100457.72;5016564;28;6796;-77
2022/08/05 06:17:10;;;;;;;;;;;;;;;23.32;62.21;100455.09;4985841;28;6925;-77
2022/08/05 06:19:36;;;;;;;;;;;;;;;23.34;62.74;100455.97;4985056;28;6851;-77
2022/08/05 06:22:07;;;;;;;;;;;;;;;23.34;62.05;100461.22;5017083;28;6987;-76
2022/08/05 06:24:35;;;;;;;;;;;;;;;23.33;62.19;100462.94;5014966;28;6812;-76
2022/08/05 06:27:01;;;;;;;;;;;;;;;23.30;62.20;100458.59;5002499;28;7264;-76
2022/08/05 06:29:27;;;;;;;;;;;;;;;23.27;61.96;100455.97;4983614;28;6792;-77
2022/08/05 06:31:52;;;;;;;;;;;;;;;23.21;61.64;100458.59;5013366;28;6792;-76
2022/08/05 06:34:18;;;;;;;;;;;;;;;23.09;61.82;100451.66;4984887;28;6963;-76
2022/08/05 06:36:44;;;;;;;;;;;;;;;22.98;61.40;100459.53;5013453;28;7046;-76
2022/08/05 06:39:10;;;;;;;;;;;;;;;22.88;61.54;100466.50;4985058;28;7073;-76
2022/08/05 06:41:36;;;;;;;;;;;;;;;22.76;61.58;100471.75;5014408;28;7194;-76
2022/08/05 06:44:01;;;;;;;;;;;;;;;22.67;61.76;100469.16;5013535;28;6864;-76
2022/08/05 06:46:27;;;;;;;;;;;;;;;22.61;62.20;100475.25;5018070;28;6811;-76
2022/08/05 06:48:53;;;;;;;;;;;;;;;22.54;61.59;100474.41;5016645;28;6993;-76
2022/08/05 06:51:18;;;;;;;;;;;;;;;22.46;61.78;100478.72;5017021;28;6776;-76
2022/08/05 06:53:44;;;;;;;;;;;;;;;22.38;61.87;100483.94;5014650;28;7207;-76
2022/08/05 06:56:09;;;;;;;;;;;;;;;22.32;61.94;100502.22;4981302;28;7053;-76
2022/08/05 06:58:35;;;;;;;;;;;;;;;22.26;62.51;100508.28;4981121;28;6776;-75
2022/08/05 07:01:02;;;;;;;;;;;;;;;22.20;62.57;100511.78;4987040;28;6788;-75
2022/08/05 07:03:29;;;;;;;;;;;;;;;22.16;62.63;100512.66;5014211;28;7144;-75
2022/08/05 07:05:55;;;;;;;;;;;;;;;22.10;62.53;100519.56;4985024;28;6804;-76
2022/08/05 07:08:21;;;;;;;;;;;;;;;22.04;62.69;100528.25;4980469;28;7246;-76
2022/08/05 07:10:47;;;;;;;;;;;;;;;21.97;62.43;100531.72;4984727;28;7315;-76
2022/08/05 07:18:41;;;;;;;;;;;;;;;21.80;62.70;100536.88;5008513;28;6804;-76
2022/08/05 07:21:07;;;;;;;;;;;;;;;21.77;62.16;100533.41;5012507;28;7844;-76
2022/08/05 07:23:34;;;;;;;;;;;;;;;21.77;62.82;100549.06;5014477;28;6776;-76
2022/08/05 07:25:59;;;;;;;;;;;;;;;21.80;62.46;100549.91;5013974;28;6995;-76
2022/08/05 07:28:26;;;;;;;;;;;;;;;21.84;62.75;100554.31;4995187;28;6984;-76
2022/08/05 07:30:52;;;;;;;;;;;;;;;21.86;62.75;100560.38;5016973;28;6863;-76
2022/08/05 07:33:20;;;;;;;;;;;;;;;21.89;62.57;100570.81;5013328;28;7008;-76
2022/08/05 07:35:46;;;;;;;;;;;;;;;21.91;62.31;100576.91;4983914;28;6795;-76
2022/08/05 07:38:16;;;;;;;;;;;;;;;21.90;62.15;100580.41;5012343;28;6971;-76
2022/08/05 07:40:43;;;;;;;;;;;;;;;21.87;62.16;100585.59;5013172;28;6804;-76
2022/08/05 07:43:10;;;;;;;;;;;;;;;21.85;62.12;100589.97;5003113;28;7003;-76
2022/08/05 07:45:36;;;;;;;;;;;;;;;21.79;61.69;100582.97;4987727;28;7090;-76
2022/08/05 07:48:02;;;;;;;;;;;;;;;21.76;62.01;100594.25;4980978;28;6772;-76
2022/08/05 07:50:28;;;;;;;;;;;;;;;21.73;61.94;100590.75;5028201;28;7008;-76
2022/08/05 07:52:54;;;;;;;;;;;;;;;21.68;61.49;100588.13;5014939;28;7174;-76
2022/08/05 07:55:19;;;;;;;;;;;;;;;21.67;61.90;100596.81;5014887;28;7165;-76
2022/08/05 07:57:45;;;;;;;;;;;;;;;21.68;62.05;100595.94;5014726;28;6763;-76
2022/08/05 08:00:13;;;;;;;;;;;;;;;21.68;61.72;100600.28;5001639;28;7224;-76
2022/08/05 08:02:39;;;;;;;;;;;;;;;21.71;61.96;100608.16;5015358;28;12802;-76
2022/08/05 08:05:05;;;;;;;;;;;;;;;21.73;61.76;100612.50;5003082;28;7717;-76
2022/08/05 08:07:31;;;;;;;;;;;;;;;21.73;61.83;100609.03;5012305;28;7116;-76
2022/08/05 08:09:57;;;;;;;;;;;;;;;21.73;61.50;100609.03;4981574;28;6927;-76
2022/08/05 08:12:23;;;;;;;;;;;;;;;21.73;61.54;100615.13;4981321;28;7854;-76
2022/08/05 08:14:48;;;;;;;;;;;;;;;21.75;61.80;100618.59;4977533;28;6784;-76
2022/08/05 08:17:14;;;;;;;;;;;;;;;21.79;61.57;100614.28;5012896;28;6994;-76
2022/08/05 08:19:41;;;;;;;;;;;;;;;21.86;61.57;100616.03;4984951;28;6788;-76
2022/08/05 08:22:08;;;;;;;;;;;;;;;21.92;61.59;100621.28;5012912;28;7042;-76
2022/08/05 08:24:35;;;;;;;;;;;;;;;22.00;61.35;100626.53;5011148;28;6788;-76
2022/08/05 08:27:01;;;;;;;;;;;;;;;22.09;61.30;100640.50;4995049;28;7253;-76
2022/08/05 08:29:27;;;;;;;;;;;;;;;22.15;61.24;100648.34;4984196;28;7027;-76
2022/08/05 08:31:54;;;;;;;;;;;;;;;22.18;60.87;100643.13;5012155;28;6942;-76
2022/08/05 08:34:24;;;;;;;;;;;;;;;22.17;60.45;100644.88;4993048;28;7209;-76
2022/08/05 08:36:50;;;;;;;;;;;;;;;22.13;60.31;100643.13;5013609;28;6965;-76
2022/08/05 08:39:17;;;;;;;;;;;;;;;22.11;60.29;100644.84;4981013;28;7160;-76
2022/08/05 08:41:51;;;;;;;;;;;;;;;22.11;60.50;100647.47;4987060;28;7164;-75
2022/08/05 08:44:19;;;;;;;;;;;;;;;22.16;60.42;100650.09;5011648;28;7892;-75
2022/08/05 08:46:47;;;;;;;;;;;;;;;22.19;60.67;100650.09;4980441;28;7185;-75
2022/08/05 08:49:19;;;;;;;;;;;;;;;22.23;60.41;100653.59;5000269;28;6990;-76
2022/08/05 08:52:00;;;;;;;;;;;;;;;22.29;60.87;100661.47;5010082;28;6997;-75
2022/08/05 08:54:26;;;;;;;;;;;;;;;22.36;60.40;100663.22;5011981;28;7006;-76
2022/08/05 08:56:52;;;;;;;;;;;;;;;22.43;60.26;100667.59;5012975;28;6860;-76
2022/08/05 08:59:19;;;;;;;;;;;;;;;22.49;59.84;100669.38;4996081;28;6982;-75
2022/08/05 09:01:45;;;;;;;;;;;;;;;22.54;59.87;100682.44;4999565;28;7326;-75
2022/08/05 09:04:12;;;;;;;;;;;;;;;22.59;60.18;100692.03;4983441;28;6875;-76
2022/08/05 09:06:38;;;;;;;;;;;;;;;22.65;60.21;100690.31;4976427;28;6789;-76
2022/08/05 09:09:04;;;;;;;;;;;;;;;22.71;60.08;100685.13;4998851;28;6950;-76
2022/08/05 09:11:35;;;;;;;;;;;;;;;22.80;60.37;100690.38;5029197;28;7524;-76
2022/08/05 09:14:02;;;;;;;;;;;;;;;22.92;60.37;100692.09;4984775;28;8170;-76
2022/08/05 09:16:28;;;;;;;;;;;;;;;23.06;60.15;100693.88;4964721;28;7000;-76
2022/08/05 09:18:53;;;;;;;;;;;;;;;23.21;59.65;100700.88;5013217;28;6780;-76
2022/08/05 09:21:21;;;;;;;;;;;;;;;23.34;59.77;100709.63;5029848;28;6986;-76
2022/08/05 09:24:03;;;;;;;;;;;;;;;23.46;59.23;100695.63;5016093;28;6987;-76
2022/08/05 09:26:29;;;;;;;;;;;;;;;23.54;58.61;100704.34;5001443;28;8100;-76
2022/08/05 09:29:00;;;;;;;;;;;;;;;23.61;58.62;100708.72;4986651;28;6792;-75
2022/08/05 09:31:26;;;;;;;;;;;;;;;23.70;58.67;100708.69;4989546;28;7101;-75
2022/08/05 09:34:01;;;;;;;;;;;;;;;23.86;58.09;100706.06;5029500;28;7242;-75
2022/08/05 09:36:40;;;;;;;;;;;;;;;24.01;57.86;100713.00;5000378;28;7304;-75
2022/08/05 09:39:12;;;;;;;;;;;;;;;24.24;58.29;100712.09;5012289;28;6979;-75
2022/08/05 09:42:03;;;;;;;;;;;;;;;24.62;57.52;100718.00;5033494;28;6985;-75
2022/08/05 09:44:37;;;;;;;;;;;;;;;24.95;56.27;100716.97;4987269;28;6804;-75
2022/08/05 09:47:16;;;;;;;;;;;;;;;25.24;55.75;100712.41;5016474;28;6973;-77
2022/08/05 09:49:56;;;;;;;;;;;;;;;25.47;54.92;100719.19;5017104;28;6994;-77
2022/08/05 09:52:31;;;;;;;;;;;;;;;25.68;54.15;100722.53;5012759;28;7023;-77
2022/08/05 09:55:03;;;;;;;;;;;;;;;25.78;53.00;100724.19;5015644;28;7793;-77
2022/08/05 09:57:41;;;;;;;;;;;;;;;25.78;52.61;100737.31;5012729;28;6884;-77
2022/08/05 10:00:12;;;;;;;;;;;;;;;25.77;52.69;100738.19;4986145;28;7067;-77
2022/08/05 10:02:42;;;;;;;;;;;;;;;25.66;52.07;100735.69;5014552;28;12726;-77
2022/08/05 10:05:23;;;;;;;;;;;;;;;25.61;52.23;100743.59;5020500;28;6950;-77
2022/08/05 10:07:56;;;;;;;;;;;;;;;25.59;52.01;100748.00;4987944;28;6811;-77
2022/08/05 10:10:35;;;;;;;;;;;;;;;25.63;53.01;100746.19;4988064;28;6985;-77
2022/08/05 10:13:03;;;;;;;;;;;;;;;25.79;52.02;100749.56;5012163;28;6804;-77
2022/08/05 10:15:36;;;;;;;;;;;;;;;25.90;52.14;100760.84;5019311;28;6807;-77
2022/08/05 10:18:21;;;;;;;;;;;;;;;25.97;51.57;100752.88;5034528;28;7093;-77
2022/08/05 10:21:05;;;;;;;;;;;;;;;26.09;51.43;100757.13;4985751;28;7301;-77
2022/08/05 10:23:37;;;;;;;;;;;;;;;26.11;50.70;100753.59;4988143;28;6804;-77
2022/08/05 10:26:11;;;;;;;;;;;;;;;26.07;50.12;100755.41;5012422;28;6962;-77
2022/08/05 10:28:37;;;;;;;;;;;;;;;26.07;49.91;100754.50;4987762;28;6971;-77
2022/08/05 10:31:04;;;;;;;;;;;;;;;26.14;49.93;100755.34;4982493;28;6796;-77
2022/08/05 10:33:32;;;;;;;;;;;;;;;26.29;50.24;100767.47;5016729;28;7904;-77
2022/08/05 10:36:04;;;;;;;;;;;;;;;26.55;49.63;100758.34;4985447;28;6800;-77
2022/08/05 10:38:33;;;;;;;;;;;;;;;27.06;50.02;100757.69;5014362;28;7104;-77
2022/08/05 10:41:14;;;;;;;;;;;;;;;27.52;48.24;100749.97;4981843;28;6796;-77
2022/08/05 10:44:01;;;;;;;;;;;;;;;28.02;47.81;100751.72;5016942;28;7274;-77
2022/08/05 10:46:51;;;;;;;;;;;;;;;28.49;46.86;100752.56;4983246;28;7310;-76
2022/08/05 10:49:19;;;;;;;;;;;;;;;28.92;46.01;100756.03;4987731;28;7185;-75
2022/08/05 10:51:48;;;;;;;;;;;;;;;29.03;43.43;100758.44;5013679;28;7117;-75
2022/08/05 10:54:16;;;;;;;;;;;;;;;28.96;43.60;100762.13;4983791;28;6804;-76
2022/08/05 10:56:56;;;;;;;;;;;;;;;29.06;43.79;100761.00;4985093;28;7137;-76
2022/08/05 10:59:29;;;;;;;;;;;;;;;29.48;43.60;100757.38;5013940;28;6871;-76
2022/08/05 11:02:12;;;;;;;;;;;;;;;30.17;43.48;100758.22;4979050;28;6816;-76
2022/08/05 11:04:46;;;;;;;;;;;;;;;30.79;41.76;100761.69;5015897;28;6952;-76
2022/08/05 11:07:16;;;;;;;;;;;;;;;31.34;40.75;100768.81;4986049;28;8054;-76
2022/08/05 11:09:50;;;;;;;;;;;;;;;31.58;39.59;100769.78;4981191;28;6871;-76
2022/08/05 11:12:42;;;;;;;;;;;;;;;31.53;38.00;100769.09;5002383;28;7072;-76
2022/08/05 11:15:19;;;;;;;;;;;;;;;31.30;38.26;100767.22;4981121;28;6882;-76
2022/08/05 11:18:27;;;;;;;;;;;;;;;31.10;38.14;100770.47;5003122;28;7006;-76
2022/08/05 11:20:53;;;;;;;;;;;;;;;30.88;37.70;100772.00;4982320;28;7153;-75
2022/08/05 11:23:54;;;;;;;;;;;;;;;30.82;37.69;100774.84;4985968;28;7860;-76
2022/08/05 11:26:23;;;;;;;;;;;;;;;30.74;37.13;100775.06;4980285;28;6872;-76
2022/08/05 11:28:52;;;;;;;;;;;;;;;30.91;37.29;100781.63;5029431;28;7073;-76
2022/08/05 11:31:17;;;;;;;;;;;;;;;31.07;36.82;100782.00;5012154;28;8185;-76
2022/08/05 11:33:45;;;;;;;;;;;;;;;30.94;36.44;100780.69;4982086;28;6780;-76
2022/08/05 11:36:15;;;;;;;;;;;;;;;30.58;36.90;100793.16;4978834;28;7143;-76
2022/08/05 11:38:41;;;;;;;;;;;;;;;30.17;36.97;100784.66;4984158;28;7078;-76
2022/08/05 11:41:19;;;;;;;;;;;;;;;29.73;37.39;100777.84;4983837;28;6772;-76
2022/08/05 11:43:57;;;;;;;;;;;;;;;29.43;38.51;100782.97;4982427;28;6804;-76
2022/08/05 11:46:42;;;;;;;;;;;;;;;29.45;38.92;100778.56;4983641;28;6875;-76
2022/08/05 11:49:12;;;;;;;;;;;;;;;29.83;38.03;100780.25;4980216;28;6804;-76
2022/08/05 11:51:44;;;;;;;;;;;;;;;30.30;37.92;100769.31;4976865;28;6878;-76
2022/08/05 11:54:19;;;;;;;;;;;;;;;30.98;37.63;100772.59;5009427;28;7203;-76
2022/08/05 11:56:47;;;;;;;;;;;;;;;31.78;36.36;100764.72;5014968;28;6811;-76
2022/08/05 11:59:19;;;;;;;;;;;;;;;32.30;35.22;100774.34;4983311;28;6840;-76
2022/08/05 12:01:52;;;;;;;;;;;;;;;32.74;35.37;100778.91;4979814;28;6968;-76
2022/08/05 12:04:18;;;;;;;;;;;;;;;33.38;34.93;100764.81;4983100;28;6995;-76
2022/08/05 12:06:44;;;;;;;;;;;;;;;34.20;33.67;100754.25;5033385;28;6998;-76
2022/08/05 12:09:10;;;;;;;;;;;;;;;34.89;33.37;100760.78;5009202;28;6792;-76
2022/08/05 12:11:37;;;;;;;;;;;;;;;35.59;32.02;100767.19;5010576;28;6776;-77
2022/08/05 12:14:07;;;;;;;;;;;;;;;35.65;30.45;100766.84;5014821;28;6800;-77
2022/08/05 12:16:35;;;;;;;;;;;;;;;35.28;30.14;100766.91;5010847;28;7118;-77
2022/08/05 12:19:03;;;;;;;;;;;;;;;34.81;30.33;100767.44;5014064;28;7382;-77
2022/08/05 12:21:33;;;;;;;;;;;;;;;34.51;30.82;100757.28;5015596;28;7287;-77
2022/08/05 12:24:08;;;;;;;;;;;;;;;34.49;30.15;100762.69;4984706;28;6792;-77
2022/08/05 12:26:37;;;;;;;;;;;;;;;34.57;30.65;100773.84;5014541;28;7259;-76
2022/08/05 12:29:12;;;;;;;;;;;;;;;34.95;29.79;100775.59;4984614;28;6788;-77
2022/08/05 12:31:39;;;;;;;;;;;;;;;35.53;29.90;100780.78;4997555;28;7313;-77
2022/08/05 12:34:09;;;;;;;;;;;;;;;36.03;29.12;100772.88;5015661;28;7054;-77
2022/08/05 12:36:36;;;;;;;;;;;;;;;35.92;29.03;100781.44;4982522;28;7196;-76
2022/08/05 12:39:05;;;;;;;;;;;;;;;35.46;28.34;100782.91;5013379;28;7127;-77
2022/08/05 12:41:35;;;;;;;;;;;;;;;35.37;28.90;100783.38;5013758;28;7015;-77
2022/08/05 12:44:14;;;;;;;;;;;;;;;35.43;29.13;100796.34;4983005;28;6984;-76
2022/08/05 12:46:41;;;;;;;;;;;;;;;35.34;28.41;100796.81;4985110;28;7150;-76
2022/08/05 12:49:10;;;;;;;;;;;;;;;34.59;27.92;100789.75;5001157;28;7000;-76
2022/08/05 12:51:56;;;;;;;;;;;;;;;33.65;28.74;100809.78;4981999;28;6883;-76
2022/08/05 12:54:24;;;;;;;;;;;;;;;32.92;29.72;100810.06;4985197;28;6812;-76
2022/08/05 12:56:52;;;;;;;;;;;;;;;32.40;30.78;100815.53;5000622;28;7329;-76
2022/08/05 12:59:30;;;;;;;;;;;;;;;31.86;31.31;100828.91;5010875;28;7066;-76
2022/08/05 13:02:04;;;;;;;;;;;;;;;31.18;31.30;100834.59;4984621;28;6982;-77
2022/08/05 13:04:34;;;;;;;;;;;;;;;30.54;32.27;100840.88;4979621;28;7127;-76
2022/08/05 13:07:05;;;;;;;;;;;;;;;29.97;32.92;100853.84;4975007;28;6953;-76